Weather observations for the past three days for
Deadhorse, Deadhorse Airport
| Date | Time (akdt) | Wind (kph) | Vis. (km) | Weather | Sky Cond. | Temperature (ºC) | Relative Humidity | Wind Chill (°C) | Heat Index (°C) | Pressure | Precipitation (cm) | ||||||
|---|---|---|---|---|---|---|---|---|---|---|---|---|---|---|---|---|---|
| Air | Dwpt | 6 hour | altimeter (cm) | sea level (mb) | 1 hr | 3 hr | 6 hr | ||||||||||
| Max. | Min. | ||||||||||||||||
| 09 | 07:53 | NE 33 | 6.44 | Fog/Mist and Breezy | OVC007 | -8.3 | -9.4 | 92% | -17 | 76.25 | 1016.7 | ||||||
| 09 | 06:53 | NE 30 | 6.44 | Fog/Mist | OVC007 | -8.3 | -9.4 | 92% | -17 | 76.28 | 1016.9 | ||||||
| 09 | 05:53 | NE 24 | 3.22 | Fog/Mist | OVC005 | -8.3 | -9.4 | 92% | -16 | 76.28 | 1017.2 | ||||||
| 09 | 04:53 | NE 22 | 11.27 | Overcast | OVC008 | -8.9 | -10 | 92% | -16 | 76.33 | 1017.8 | ||||||
| 09 | 03:53 | NE 22 | 16.09 | Overcast | OVC010 | -8.3 | -10.6 | -7.8 | -9.4 | 84% | -16 | 76.35 | 1018.0 | ||||
| 09 | 02:53 | NE 15 | 16.09 | Overcast | OVC010 | -8.3 | -10 | 88% | -14 | 76.35 | 1018.3 | ||||||
| 09 | 01:53 | NE 17 | 16.09 | Overcast | OVC013 | -8.9 | -10.6 | 88% | -15 | 76.4 | 1018.8 | ||||||
| 09 | 00:53 | NE 15 | 16.09 | Overcast | OVC015 | -8.9 | -11.7 | 80% | -15 | 76.43 | 1019.0 | ||||||
| 08 | 23:53 | NE 19 | 16.09 | Overcast | OVC022 | -9.4 | -10.6 | 91% | -16 | 76.43 | 1019.1 | ||||||
| 08 | 22:53 | E 13 | 6.44 | Light Snow Fog/Mist | FEW012 OVC023 | -7.8 | -9.4 | 88% | -13 | 76.43 | 1019.2 | ||||||
| 08 | 21:53 | NE 13 | 2.01 | Light Snow Fog/Mist | BKN006 OVC016 | -7.8 | -9.4 | -7.2 | -8.3 | 88% | -13 | 76.43 | 1019.2 | ||||
| 08 | 20:53 | E 9 | 16.09 | Overcast | OVC017 | -7.8 | -10.6 | 81% | -12 | 76.45 | 1019.4 | ||||||
| 08 | 19:53 | E 15 | 8.05 | Fog/Mist | OVC012 | -8.3 | -11.1 | 80% | -14 | 76.48 | 1019.7 | ||||||
| 08 | 18:53 | E 19 | 16.09 | Overcast | BKN014 OVC019 | -7.8 | -10.6 | 81% | -14 | 76.5 | 1020.0 | ||||||
| 08 | 17:53 | E 20 | 14.48 | Overcast | OVC015 | -7.8 | -10 | 84% | -15 | 76.5 | 1020.2 | ||||||
| 08 | 16:53 | NE 22 | 8.05 | Light Snow | OVC013 | -7.8 | -10.6 | 81% | -15 | 76.53 | 1020.5 | ||||||
| 08 | 15:53 | E 19 | 4.83 | Light Snow | BKN010 OVC021 | -7.8 | -10.6 | -7.2 | -7.8 | 81% | -14 | 76.56 | 1020.8 | ||||
| 08 | 14:53 | N 17 | 16.09 | Overcast | BKN010 OVC021 | -7.8 | -10 | 84% | -14 | 76.56 | 1020.9 | ||||||
| 08 | 13:53 | NE 17 | 9.66 | Fog/Mist | OVC010 | -7.8 | -9.4 | 88% | -14 | 76.61 | 1021.4 | ||||||
| 08 | 12:53 | E 13 | 11.27 | Overcast | OVC010 | -7.8 | -10 | 84% | -13 | 76.61 | 1021.5 | ||||||
| 08 | 11:53 | E 11 | 16.09 | Overcast | OVC011 | -7.8 | -10 | 84% | -12 | 76.61 | 1021.7 | ||||||
| 08 | 10:53 | NE 13 | 16.09 | Overcast | OVC010 | -7.2 | -9.4 | 84% | -12 | 76.63 | 1021.8 | ||||||
| 08 | 09:53 | NE 11 | 16.09 | Overcast | OVC011 | -7.8 | -9.4 | -7.8 | -7.8 | 88% | -12 | 76.66 | 1022.1 | ||||
| 08 | 08:53 | NE 13 | 14.48 | Overcast | OVC010 | -7.8 | -9.4 | 88% | -13 | 76.68 | 1022.4 | ||||||
| 08 | 07:53 | NE 13 | 14.48 | Light Snow Fog/Mist | OVC010 | -7.8 | -8.9 | 92% | -13 | 76.68 | 1022.6 | ||||||
| 08 | 06:53 | NW 9 | 9.66 | Light Snow Fog/Mist | OVC007 | -7.8 | -8.9 | 92% | -12 | 76.71 | 1022.9 | ||||||
| 08 | 05:53 | NW 13 | 4.83 | Light Snow Fog/Mist | OVC004 | -7.8 | -8.3 | 96% | -13 | 76.73 | 1023.2 | ||||||
| 08 | 04:53 | W 11 | 4.02 | Light Snow Fog/Mist | OVC005 | -7.8 | -8.3 | 96% | -12 | 76.76 | 1023.5 | ||||||
| 08 | 03:53 | W 15 | 14.48 | Light Snow | OVC008 | -7.8 | -8.9 | -7.2 | -8.3 | 92% | -13 | 76.76 | 1023.6 | ||||
| 08 | 02:53 | W 11 | 14.48 | Light Snow | OVC010 | -7.8 | -8.9 | 92% | -12 | 76.78 | 1023.8 | ||||||
| 08 | 01:53 | W 11 | 14.48 | Light Snow | OVC011 | -7.8 | -8.9 | 92% | -12 | 76.78 | 1023.8 | ||||||
| 08 | 00:53 | SW 11 | 14.48 | Light Snow | OVC011 | -8.3 | -9.4 | 92% | -13 | 76.78 | 1024.0 | ||||||
| 07 | 23:53 | SW 15 | 14.48 | Light Snow | OVC012 | -8.3 | -9.4 | 92% | -14 | 76.81 | 1024.2 | ||||||
| 07 | 22:53 | SW 11 | 16.09 | Light Snow | OVC011 | -7.8 | -9.4 | 88% | -12 | 76.81 | 1024.2 | ||||||
| 07 | 21:53 | SW 7 | 16.09 | Overcast | OVC011 | -7.2 | -9.4 | -6.7 | -7.2 | 84% | -10 | 76.81 | 1024.2 | ||||
| 07 | 20:53 | W 11 | 16.09 | Overcast | OVC010 | -7.2 | -9.4 | 84% | -12 | 76.84 | 1024.5 | ||||||
| 07 | 19:53 | W 11 | 16.09 | Overcast | OVC010 | -7.2 | -8.9 | 88% | -12 | 76.84 | 1024.5 | ||||||
| 07 | 18:53 | W 9 | 16.09 | Overcast | OVC010 | -7.2 | -9.4 | 84% | -11 | 76.84 | 1024.6 | ||||||
| 07 | 17:53 | W 13 | 16.09 | Overcast | OVC010 | -6.7 | -8.9 | 85% | -12 | 76.84 | 1024.6 | ||||||
| 07 | 16:53 | W 7 | 16.09 | Overcast | OVC010 | -7.2 | -8.9 | 88% | -10 | 76.84 | 1024.5 | ||||||
| 07 | 15:53 | W 15 | 16.09 | Overcast | OVC010 | -7.2 | -9.4 | -7.2 | -7.8 | 84% | -13 | 76.84 | 1024.4 | ||||
| 07 | 14:53 | W 15 | 16.09 | Overcast | OVC010 | -7.2 | -9.4 | 84% | -13 | 76.81 | 1024.3 | ||||||
| 07 | 13:53 | W 19 | 16.09 | Overcast | OVC008 | -7.8 | -9.4 | 88% | -14 | 76.81 | 1024.1 | ||||||
| 07 | 12:53 | W 15 | 16.09 | Overcast | OVC007 | -7.8 | -9.4 | 88% | -13 | 76.78 | 1023.9 | ||||||
| 07 | 11:53 | W 19 | 16.09 | Overcast | OVC007 | -7.8 | -8.9 | 92% | -14 | 76.76 | 1023.5 | ||||||
| 07 | 10:53 | W 11 | 16.09 | Overcast | OVC007 | -7.8 | -8.9 | 92% | -12 | 76.73 | 1023.2 | ||||||
| 07 | 09:53 | W 13 | 16.09 | Overcast | OVC008 | -7.2 | -8.9 | -5.6 | -7.2 | 88% | -12 | 76.71 | 1022.9 | ||||
| 07 | 08:53 | W 15 | 16.09 | Overcast | OVC010 | -6.7 | -8.9 | 85% | -12 | 76.68 | 1022.4 | ||||||
| 07 | 07:53 | NW 17 | 16.09 | Overcast | OVC011 | -6.7 | -8.3 | 89% | -13 | 76.66 | 1022.0 | ||||||
| 07 | 06:53 | NW 17 | 16.09 | Overcast | OVC011 | -6.1 | -8.3 | 85% | -12 | 76.61 | 1021.5 | ||||||
| 07 | 05:53 | W 13 | 16.09 | Overcast | OVC011 | -6.1 | -7.8 | 88% | -11 | 76.56 | 1020.9 | ||||||
| 07 | 04:53 | W 13 | 16.09 | Overcast | OVC014 | -5.6 | -7.8 | 85% | -10 | 76.53 | 1020.5 | ||||||
| 07 | 03:53 | W 13 | 16.09 | Overcast | OVC014 | -5.6 | -7.8 | -5 | -6.1 | 85% | -10 | 76.5 | 1020.2 | ||||
| 07 | 02:53 | W 11 | 16.09 | Overcast | OVC014 | -5.6 | -8.3 | 82% | -10 | 76.48 | 1019.8 | ||||||
| 07 | 01:53 | W 7 | 16.09 | Overcast | OVC015 | -6.1 | -7.8 | 88% | -9 | 76.45 | 1019.4 | ||||||
| 07 | 00:53 | W 11 | 16.09 | Overcast | OVC015 | -6.1 | -7.8 | 88% | -10 | 76.4 | 1018.9 | ||||||
| 06 | 23:53 | W 9 | 16.09 | Overcast | OVC013 | -5.6 | -7.8 | 85% | -9 | 76.38 | 1018.4 | ||||||
| 06 | 22:53 | W 15 | 16.09 | Overcast | OVC014 | -5 | -7.8 | 81% | -10 | 76.35 | 1018.0 | ||||||
| 06 | 21:53 | W 19 | 16.09 | Overcast | OVC013 | -5 | -7.2 | -3.9 | -5 | 85% | -11 | 76.3 | 1017.6 | ||||
| 06 | 20:53 | W 17 | 16.09 | Overcast | OVC015 | -4.4 | -7.2 | 81% | -10 | 76.28 | 1017.1 | ||||||
| 06 | 19:53 | W 20 | 16.09 | Overcast | OVC015 | -4.4 | -7.2 | 81% | -10 | 76.25 | 1016.6 | ||||||
| 06 | 18:53 | W 24 | 16.09 | Overcast | OVC014 | -4.4 | -7.2 | 81% | -11 | 76.2 | 1016.0 | ||||||
| 06 | 17:53 | W 30 | 16.09 | Overcast | OVC014 | -3.9 | -6.7 | 81% | -11 | 76.15 | 1015.4 | ||||||
| 06 | 16:53 | W 30 | 16.09 | Overcast | OVC015 | -3.9 | -6.1 | 85% | -11 | 76.12 | 1014.9 | ||||||
| 06 | 15:53 | W 30 | 16.09 | Overcast | OVC015 | -3.9 | -6.7 | -3.9 | -5.6 | 81% | -11 | 76.07 | 1014.4 | ||||
| 06 | 14:53 | W 37 | 16.09 | Overcast and Breezy | OVC014 | -3.9 | -6.7 | 81% | -12 | 76.02 | 1013.7 | ||||||
| 06 | 13:53 | W 35 | 16.09 | Overcast and Breezy | OVC014 | -4.4 | -6.7 | 84% | -12 | 76 | 1013.2 | ||||||
| 06 | 12:53 | W 30 | 16.09 | Mostly Cloudy | BKN014 | -5 | -7.2 | 85% | -12 | 75.95 | 1012.6 | ||||||
| 06 | 11:53 | W 35 | 16.09 | Overcast and Breezy | OVC013 | -5 | -7.2 | 85% | -13 | 75.9 | 1012.0 | ||||||
| 06 | 10:53 | W 31 | 16.09 | Overcast | OVC012 | -5.6 | -7.2 | 89% | -13 | 75.87 | 1011.6 | ||||||
| 06 | 09:53 | W 30 | 16.09 | Overcast | OVC012 | -5.6 | -7.8 | -5.6 | -6.7 | 85% | -13 | 75.84 | 1011.2 | ||||
| 06 | 08:53 | W 31 | 14.48 | Overcast | BKN011 OVC080 | -6.7 | -8.3 | 89% | -15 | 75.79 | 1010.7 | ||||||
| Date | Time (akdt) | Wind (kph) | Vis. (km) | Weather | Sky Cond. | Air | Dwpt | Max. | Min. | Relative Humidity | Wind Chill (°C) | Heat Index (°C) | altimeter (cm) | sea level (mb) | 1 hr | 3 hr | 6 hr |
| 6 hour | |||||||||||||||||
| Temperature (ºC) | Pressure | Precipitation (cm) | |||||||||||||||